Airports Netherlands Groningen Airport Eelde

Groningen Airport Eelde (EHGG / GRQ)

Facts about Groningen Airport Eelde

Name Groningen Airport Eelde
City Groningen
Country Netherlands
ICAO code EHGG
IATA code GRQ
Elevation 5.1816 meters (17 feet)

Weather

METAR

Metar data retrieved Sunday, 21 July 2024 at 18:55 UTC (7 minutes ago)

EHGG 211825Z AUTO 32007KT 280V350 9999 FEW008 SCT009 BKN019 20/18 Q1009 NOSIG

Live traffic

Navigraph Charts (account required)